Hauptseite
METAR-TAF:

METAR-TAF

Flughäfen :

Flughafen Aberdeen International

Aberdeen, Schottland

Breite: 57-12N, Länge: 002-13W, Höhe: 65 m

Beobachtung

Neuester Wetterbericht von vor 44 Minuten, um 18:50 UTC
Wind 10 kt aus West/Südwest
Temperatur 8°C
Luftfeuchtigkeit 61%
Luftdruck 1025 hPa
Sichtweite 10 km oder mehr

METAR: EGPD 211850Z AUTO 25010KT 9999 NCD 08/01 Q1025 NOSIG

Zeit: 20:34 (19:34 UTC)

Prognose

Neuester Wetterbericht von vor 2 Stunden und 39 Minuten, um 16:55 UTC
Gültige Prognose vom 21 um 18 UTC bis 22 um 18 UTC
Wind 12 kt aus West
Sichtweite 10 km oder mehr
Aufgelockert bewölkt in der Höhe von 2500 ft
Übergehend zu
vom 22 um 12 UTC bis 22 um 15 UTC
Wind 18 kt aus West, Böen bis zu 28 kt

TAF: EGPD 211655Z 2118/2218 26012KT 9999 SCT025 BECMG 2212/2215 26018G28KT

Wetterbeobachtungen und Prognosen von mehr als 4000 Flughäfen (METAR und TAF Bericht).

Die verfügbaren Stationen werden durch gelbe und rote Markierungen auf der Karte dargestellt.

Führen Sie die Maus auf sie, um den Namen der Station zu sehen.

Darauf klicken, um die Beobachtung von Wetterbeobachtungen und Prognosen zu sehen.

Um die Karte zu ändern : klicken Sie auf den grünen Tasten mit einem schwarzen Kreuz Zum Vergrößern, auf den grünen Button mit einem Gedankenstrich zu verkleinern, oder auf die grünen Pfeile für benachbarte Karten.


METAR-TAF: